sensor_id;sensor_type;location;lat;lon;timestamp;pressure;altitude;pressure_sealevel;temperature;humidity
9110;BME280;4590;51.462;6.692;2022-11-15T00:00:21;100690.47;;;11.56;66.85
9110;BME280;4590;51.462;6.692;2022-11-15T00:02:46;100697.91;;;11.55;67.14
9110;BME280;4590;51.462;6.692;2022-11-15T00:05:11;100695.78;;;11.52;66.93
9110;BME280;4590;51.462;6.692;2022-11-15T00:07:37;100697.91;;;11.55;67.54
9110;BME280;4590;51.462;6.692;2022-11-15T00:10:03;100688.91;;;11.64;67.19
9110;BME280;4590;51.462;6.692;2022-11-15T00:12:28;100678.19;;;11.62;67.48
9110;BME280;4590;51.462;6.692;2022-11-15T00:14:53;100686.50;;;11.71;67.44
9110;BME280;4590;51.462;6.692;2022-11-15T00:17:19;100689.38;;;11.66;67.74
9110;BME280;4590;51.462;6.692;2022-11-15T00:19:44;100687.72;;;11.78;67.38
9110;BME280;4590;51.462;6.692;2022-11-15T00:22:10;100694.69;;;11.76;67.43
9110;BME280;4590;51.462;6.692;2022-11-15T00:24:35;100694.41;;;11.86;67.20
9110;BME280;4590;51.462;6.692;2022-11-15T00:27:00;100693.59;;;11.85;67.52
9110;BME280;4590;51.462;6.692;2022-11-15T00:29:25;100689.50;;;11.83;67.69
9110;BME280;4590;51.462;6.692;2022-11-15T00:31:50;100692.16;;;11.88;67.91
9110;BME280;4590;51.462;6.692;2022-11-15T00:34:16;100689.16;;;11.76;68.90
9110;BME280;4590;51.462;6.692;2022-11-15T00:36:41;100682.31;;;11.73;68.96
9110;BME280;4590;51.462;6.692;2022-11-15T00:39:06;100679.28;;;11.83;68.90
9110;BME280;4590;51.462;6.692;2022-11-15T00:41:32;100673.28;;;11.81;69.28
9110;BME280;4590;51.462;6.692;2022-11-15T00:43:57;100674.28;;;11.85;68.75
9110;BME280;4590;51.462;6.692;2022-11-15T00:46:22;100676.44;;;11.97;68.44
9110;BME280;4590;51.462;6.692;2022-11-15T00:48:47;100673.56;;;12.02;68.17
9110;BME280;4590;51.462;6.692;2022-11-15T00:51:13;100675.50;;;12.02;68.27
9110;BME280;4590;51.462;6.692;2022-11-15T00:53:38;100671.44;;;11.99;68.75
9110;BME280;4590;51.462;6.692;2022-11-15T00:56:03;100673.22;;;11.95;69.06
9110;BME280;4590;51.462;6.692;2022-11-15T00:58:29;100672.63;;;12.07;68.57
9110;BME280;4590;51.462;6.692;2022-11-15T01:00:54;100667.09;;;12.07;68.80
9110;BME280;4590;51.462;6.692;2022-11-15T01:03:19;100668.53;;;12.04;69.20
9110;BME280;4590;51.462;6.692;2022-11-15T01:05:45;100662.41;;;12.07;68.78
9110;BME280;4590;51.462;6.692;2022-11-15T01:08:15;100664.03;;;12.08;68.99
9110;BME280;4590;51.462;6.692;2022-11-15T01:10:41;100663.94;;;11.91;70.56
9110;BME280;4590;51.462;6.692;2022-11-15T01:13:06;100663.88;;;12.13;69.27
9110;BME280;4590;51.462;6.692;2022-11-15T01:15:32;100669.72;;;12.12;69.12
9110;BME280;4590;51.462;6.692;2022-11-15T01:17:57;100667.66;;;12.26;68.72
9110;BME280;4590;51.462;6.692;2022-11-15T01:20:22;100670.88;;;12.28;68.52
9110;BME280;4590;51.462;6.692;2022-11-15T01:22:47;100661.34;;;12.34;68.45
9110;BME280;4590;51.462;6.692;2022-11-15T01:25:13;100663.72;;;12.18;69.61
9110;BME280;4590;51.462;6.692;2022-11-15T01:27:38;100658.09;;;12.32;69.07
9110;BME280;4590;51.462;6.692;2022-11-15T01:30:04;100666.03;;;12.25;69.54
9110;BME280;4590;51.462;6.692;2022-11-15T01:32:29;100662.28;;;12.29;69.82
9110;BME280;4590;51.462;6.692;2022-11-15T01:34:55;100656.75;;;12.21;70.23
9110;BME280;4590;51.462;6.692;2022-11-15T01:37:20;100655.84;;;12.34;69.91
9110;BME280;4590;51.462;6.692;2022-11-15T01:39:45;100654.06;;;12.38;69.92
9110;BME280;4590;51.462;6.692;2022-11-15T01:42:13;100642.22;;;12.38;69.74
9110;BME280;4590;51.462;6.692;2022-11-15T01:44:49;100637.56;;;12.55;69.29
9110;BME280;4590;51.462;6.692;2022-11-15T01:47:18;100638.69;;;12.54;69.50
9110;BME280;4590;51.462;6.692;2022-11-15T01:50:01;100633.97;;;12.55;69.82
9110;BME280;4590;51.462;6.692;2022-11-15T01:52:30;100640.50;;;12.59;69.40
9110;BME280;4590;51.462;6.692;2022-11-15T01:55:09;100632.34;;;12.62;69.59
9110;BME280;4590;51.462;6.692;2022-11-15T01:57:37;100634.47;;;12.57;69.93
9110;BME280;4590;51.462;6.692;2022-11-15T02:00:04;100636.41;;;12.56;69.88
9110;BME280;4590;51.462;6.692;2022-11-15T02:02:30;100633.66;;;12.56;70.08
9110;BME280;4590;51.462;6.692;2022-11-15T02:04:56;100637.38;;;12.60;69.75
9110;BME280;4590;51.462;6.692;2022-11-15T02:07:22;100629.94;;;12.70;69.54
9110;BME280;4590;51.462;6.692;2022-11-15T02:09:48;100633.19;;;12.80;68.94
9110;BME280;4590;51.462;6.692;2022-11-15T02:12:17;100615.47;;;12.81;68.88
9110;BME280;4590;51.462;6.692;2022-11-15T02:14:47;100623.94;;;12.85;68.85
9110;BME280;4590;51.462;6.692;2022-11-15T02:25:57;100617.13;;;12.99;68.33
9110;BME280;4590;51.462;6.692;2022-11-15T02:28:36;100617.28;;;13.03;68.31
9110;BME280;4590;51.462;6.692;2022-11-15T02:31:29;100609.78;;;12.95;68.68
9110;BME280;4590;51.462;6.692;2022-11-15T02:34:08;100617.25;;;12.94;69.00
9110;BME280;4590;51.462;6.692;2022-11-15T02:42:02;100619.56;;;13.01;68.72
9110;BME280;4590;51.462;6.692;2022-11-15T02:44:39;100609.31;;;13.02;69.00
9110;BME280;4590;51.462;6.692;2022-11-15T02:47:12;100608.00;;;13.08;68.60
9110;BME280;4590;51.462;6.692;2022-11-15T02:49:47;100602.63;;;13.11;68.42
9110;BME280;4590;51.462;6.692;2022-11-15T02:52:19;100610.59;;;13.13;68.70
9110;BME280;4590;51.462;6.692;2022-11-15T02:54:55;100611.59;;;12.99;69.42
9110;BME280;4590;51.462;6.692;2022-11-15T02:57:33;100612.72;;;13.07;68.97
9110;BME280;4590;51.462;6.692;2022-11-15T03:00:09;100597.31;;;13.15;68.58
9110;BME280;4590;51.462;6.692;2022-11-15T03:02:52;100605.72;;;13.10;69.20
9110;BME280;4590;51.462;6.692;2022-11-15T03:05:44;100601.34;;;13.09;69.37
9110;BME280;4590;51.462;6.692;2022-11-15T03:08:31;100602.66;;;12.94;70.04
9110;BME280;4590;51.462;6.692;2022-11-15T03:11:32;100593.72;;;13.06;69.94
9110;BME280;4590;51.462;6.692;2022-11-15T03:14:42;100590.50;;;13.21;68.80
9110;BME280;4590;51.462;6.692;2022-11-15T03:22:11;100599.22;;;13.14;69.35
9110;BME280;4590;51.462;6.692;2022-11-15T03:24:38;100599.72;;;13.25;69.08
9110;BME280;4590;51.462;6.692;2022-11-15T03:27:06;100594.88;;;13.05;70.61
9110;BME280;4590;51.462;6.692;2022-11-15T03:29:37;100596.81;;;13.04;70.54
9110;BME280;4590;51.462;6.692;2022-11-15T03:32:13;100594.22;;;13.16;69.86
9110;BME280;4590;51.462;6.692;2022-11-15T03:37:30;100587.22;;;13.19;69.70
9110;BME280;4590;51.462;6.692;2022-11-15T03:39:58;100583.97;;;13.25;69.81
9110;BME280;4590;51.462;6.692;2022-11-15T03:42:30;100583.78;;;13.30;69.44
9110;BME280;4590;51.462;6.692;2022-11-15T03:45:08;100581.84;;;13.22;69.91
9110;BME280;4590;51.462;6.692;2022-11-15T03:47:51;100581.19;;;13.25;69.86
9110;BME280;4590;51.462;6.692;2022-11-15T03:50:20;100578.44;;;13.34;69.63
9110;BME280;4590;51.462;6.692;2022-11-15T03:52:47;100579.03;;;13.40;69.55
9110;BME280;4590;51.462;6.692;2022-11-15T03:55:16;100580.22;;;13.30;70.20
9110;BME280;4590;51.462;6.692;2022-11-15T03:57:42;100576.81;;;13.33;70.19
9110;BME280;4590;51.462;6.692;2022-11-15T04:00:07;100576.16;;;13.36;70.14
9110;BME280;4590;51.462;6.692;2022-11-15T04:02:33;100576.28;;;13.40;70.08
9110;BME280;4590;51.462;6.692;2022-11-15T04:04:58;100580.19;;;13.47;69.66
9110;BME280;4590;51.462;6.692;2022-11-15T04:07:24;100584.56;;;13.48;69.70
9110;BME280;4590;51.462;6.692;2022-11-15T04:09:49;100573.66;;;13.52;69.40
9110;BME280;4590;51.462;6.692;2022-11-15T04:12:37;100568.31;;;13.47;69.75
9110;BME280;4590;51.462;6.692;2022-11-15T04:15:06;100574.97;;;13.46;70.10
9110;BME280;4590;51.462;6.692;2022-11-15T04:17:32;100572.97;;;13.55;69.68
9110;BME280;4590;51.462;6.692;2022-11-15T04:19:57;100567.81;;;13.53;69.92
9110;BME280;4590;51.462;6.692;2022-11-15T04:22:41;100568.09;;;13.60;69.30
9110;BME280;4590;51.462;6.692;2022-11-15T04:25:25;100573.28;;;13.62;69.30
9110;BME280;4590;51.462;6.692;2022-11-15T04:27:50;100578.88;;;13.53;70.03
9110;BME280;4590;51.462;6.692;2022-11-15T04:30:15;100574.44;;;13.61;69.59
9110;BME280;4590;51.462;6.692;2022-11-15T04:32:41;100571.16;;;13.67;69.31
9110;BME280;4590;51.462;6.692;2022-11-15T04:35:06;100577.50;;;13.68;69.52
9110;BME280;4590;51.462;6.692;2022-11-15T04:37:31;100569.06;;;13.64;69.65
9110;BME280;4590;51.462;6.692;2022-11-15T04:39:57;100559.31;;;13.67;69.62
9110;BME280;4590;51.462;6.692;2022-11-15T04:42:22;100561.88;;;13.72;69.32
9110;BME280;4590;51.462;6.692;2022-11-15T04:44:47;100572.00;;;13.59;70.15
9110;BME280;4590;51.462;6.692;2022-11-15T04:47:13;100571.28;;;13.71;69.53
9110;BME280;4590;51.462;6.692;2022-11-15T04:49:38;100570.50;;;13.70;69.53
9110;BME280;4590;51.462;6.692;2022-11-15T04:52:03;100571.63;;;13.69;69.66
9110;BME280;4590;51.462;6.692;2022-11-15T04:54:29;100577.13;;;13.78;69.29
9110;BME280;4590;51.462;6.692;2022-11-15T04:56:54;100573.38;;;13.83;69.13
9110;BME280;4590;51.462;6.692;2022-11-15T04:59:19;100577.13;;;13.78;69.58
9110;BME280;4590;51.462;6.692;2022-11-15T05:01:45;100573.50;;;13.86;69.21
9110;BME280;4590;51.462;6.692;2022-11-15T05:04:10;100572.41;;;13.79;69.76
9110;BME280;4590;51.462;6.692;2022-11-15T05:06:46;100570.94;;;13.81;69.52
9110;BME280;4590;51.462;6.692;2022-11-15T05:09:11;100569.94;;;13.86;69.15
9110;BME280;4590;51.462;6.692;2022-11-15T05:11:38;100567.94;;;13.65;71.37
9110;BME280;4590;51.462;6.692;2022-11-15T05:14:03;100568.50;;;13.80;69.49
9110;BME280;4590;51.462;6.692;2022-11-15T05:16:28;100560.25;;;13.71;69.82
9110;BME280;4590;51.462;6.692;2022-11-15T05:18:54;100564.94;;;13.79;69.19
9110;BME280;4590;51.462;6.692;2022-11-15T05:21:20;100555.97;;;13.82;69.28
9110;BME280;4590;51.462;6.692;2022-11-15T05:23:45;100562.97;;;13.80;69.30
9110;BME280;4590;51.462;6.692;2022-11-15T05:26:11;100558.75;;;13.74;69.96
9110;BME280;4590;51.462;6.692;2022-11-15T05:28:37;100558.28;;;13.72;69.88
9110;BME280;4590;51.462;6.692;2022-11-15T05:31:08;100554.38;;;13.73;70.01
9110;BME280;4590;51.462;6.692;2022-11-15T05:33:38;100556.31;;;13.81;69.50
9110;BME280;4590;51.462;6.692;2022-11-15T05:36:35;100553.28;;;13.65;70.47
9110;BME280;4590;51.462;6.692;2022-11-15T05:38:59;100555.03;;;13.69;70.32
9110;BME280;4590;51.462;6.692;2022-11-15T05:41:46;100554.72;;;13.71;70.21
9110;BME280;4590;51.462;6.692;2022-11-15T05:44:15;100556.44;;;13.46;71.55
9110;BME280;4590;51.462;6.692;2022-11-15T05:46:41;100557.69;;;13.57;71.08
9110;BME280;4590;51.462;6.692;2022-11-15T05:49:10;100565.34;;;13.60;70.98
9110;BME280;4590;51.462;6.692;2022-11-15T05:51:36;100552.16;;;13.57;71.34
9110;BME280;4590;51.462;6.692;2022-11-15T05:54:02;100552.97;;;13.66;70.68
9110;BME280;4590;51.462;6.692;2022-11-15T05:56:28;100550.75;;;13.51;71.45
9110;BME280;4590;51.462;6.692;2022-11-15T05:58:55;100540.94;;;13.62;70.84
9110;BME280;4590;51.462;6.692;2022-11-15T06:01:21;100550.81;;;13.72;70.37
9110;BME280;4590;51.462;6.692;2022-11-15T06:03:46;100562.06;;;13.67;70.63
9110;BME280;4590;51.462;6.692;2022-11-15T06:06:12;100551.94;;;13.71;70.56
9110;BME280;4590;51.462;6.692;2022-11-15T06:08:37;100548.56;;;13.65;70.98
9110;BME280;4590;51.462;6.692;2022-11-15T06:11:04;100549.50;;;13.69;70.53
9110;BME280;4590;51.462;6.692;2022-11-15T06:13:30;100547.75;;;13.65;70.80
9110;BME280;4590;51.462;6.692;2022-11-15T06:15:55;100559.53;;;13.53;71.38
9110;BME280;4590;51.462;6.692;2022-11-15T06:18:21;100568.25;;;13.55;71.29
9110;BME280;4590;51.462;6.692;2022-11-15T06:20:46;100568.94;;;13.52;71.66
9110;BME280;4590;51.462;6.692;2022-11-15T06:23:12;100563.22;;;13.66;70.96
9110;BME280;4590;51.462;6.692;2022-11-15T06:25:38;100570.03;;;13.60;71.15
9110;BME280;4590;51.462;6.692;2022-11-15T06:28:03;100568.91;;;13.61;71.04
9110;BME280;4590;51.462;6.692;2022-11-15T06:30:29;100572.97;;;13.63;71.22
9110;BME280;4590;51.462;6.692;2022-11-15T06:33:02;100577.19;;;13.61;70.99
9110;BME280;4590;51.462;6.692;2022-11-15T06:35:28;100572.16;;;13.63;70.93
9110;BME280;4590;51.462;6.692;2022-11-15T06:37:54;100567.44;;;13.63;70.86
9110;BME280;4590;51.462;6.692;2022-11-15T06:40:19;100563.78;;;13.80;70.26
9110;BME280;4590;51.462;6.692;2022-11-15T06:42:44;100563.31;;;13.78;70.35
9110;BME280;4590;51.462;6.692;2022-11-15T06:45:10;100571.94;;;13.77;70.44
9110;BME280;4590;51.462;6.692;2022-11-15T06:47:35;100571.28;;;13.80;70.28
9110;BME280;4590;51.462;6.692;2022-11-15T06:50:00;100576.47;;;13.81;70.27
9110;BME280;4590;51.462;6.692;2022-11-15T06:52:25;100571.75;;;13.82;70.15
9110;BME280;4590;51.462;6.692;2022-11-15T06:54:51;100569.66;;;13.79;70.32
9110;BME280;4590;51.462;6.692;2022-11-15T06:57:16;100574.53;;;13.73;70.66
9110;BME280;4590;51.462;6.692;2022-11-15T06:59:41;100578.22;;;13.86;70.09
9110;BME280;4590;51.462;6.692;2022-11-15T07:02:12;100591.44;;;13.80;70.34
9110;BME280;4590;51.462;6.692;2022-11-15T07:04:38;100581.84;;;13.78;70.47
9110;BME280;4590;51.462;6.692;2022-11-15T07:07:03;100592.81;;;13.65;70.97
9110;BME280;4590;51.462;6.692;2022-11-15T07:09:28;100598.13;;;13.79;70.74
9110;BME280;4590;51.462;6.692;2022-11-15T07:11:54;100591.59;;;13.84;70.35
9110;BME280;4590;51.462;6.692;2022-11-15T07:14:19;100596.44;;;13.87;70.01
9110;BME280;4590;51.462;6.692;2022-11-15T07:16:44;100608.31;;;13.87;70.22
9110;BME280;4590;51.462;6.692;2022-11-15T07:19:09;100607.78;;;13.64;71.21
9110;BME280;4590;51.462;6.692;2022-11-15T07:21:36;100615.84;;;13.78;70.65
9110;BME280;4590;51.462;6.692;2022-11-15T07:24:01;100610.44;;;13.90;70.07
9110;BME280;4590;51.462;6.692;2022-11-15T07:26:27;100613.56;;;13.80;70.21
9110;BME280;4590;51.462;6.692;2022-11-15T07:28:52;100618.28;;;13.80;70.22
9110;BME280;4590;51.462;6.692;2022-11-15T07:31:17;100619.91;;;13.81;70.15
9110;BME280;4590;51.462;6.692;2022-11-15T07:33:43;100623.50;;;13.73;70.85
9110;BME280;4590;51.462;6.692;2022-11-15T07:36:08;100625.06;;;13.91;69.95
9110;BME280;4590;51.462;6.692;2022-11-15T07:38:34;100635.31;;;13.99;69.87
9110;BME280;4590;51.462;6.692;2022-11-15T07:41:04;100637.38;;;14.02;69.51
9110;BME280;4590;51.462;6.692;2022-11-15T07:43:29;100641.28;;;14.01;69.83
9110;BME280;4590;51.462;6.692;2022-11-15T07:45:56;100638.09;;;13.90;70.24
9110;BME280;4590;51.462;6.692;2022-11-15T07:48:21;100636.28;;;13.94;69.99
9110;BME280;4590;51.462;6.692;2022-11-15T07:50:47;100642.31;;;13.88;70.04
9110;BME280;4590;51.462;6.692;2022-11-15T07:53:12;100645.13;;;13.79;70.38
9110;BME280;4590;51.462;6.692;2022-11-15T07:55:40;100657.28;;;13.87;69.79
9110;BME280;4590;51.462;6.692;2022-11-15T07:58:07;100658.31;;;13.74;70.39
9110;BME280;4590;51.462;6.692;2022-11-15T08:00:34;100658.31;;;13.74;70.17
9110;BME280;4590;51.462;6.692;2022-11-15T08:03:10;100659.03;;;13.53;70.87
9110;BME280;4590;51.462;6.692;2022-11-15T08:05:36;100668.47;;;13.26;72.98
9110;BME280;4590;51.462;6.692;2022-11-15T08:08:02;100673.50;;;13.50;70.90
9110;BME280;4590;51.462;6.692;2022-11-15T08:10:28;100681.97;;;13.37;71.26
9110;BME280;4590;51.462;6.692;2022-11-15T08:13:02;100680.16;;;13.23;71.52
9110;BME280;4590;51.462;6.692;2022-11-15T08:15:28;100683.44;;;13.25;71.27
9110;BME280;4590;51.462;6.692;2022-11-15T08:17:56;100672.88;;;13.27;70.85
9110;BME280;4590;51.462;6.692;2022-11-15T08:20:21;100665.88;;;13.30;70.64
9110;BME280;4590;51.462;6.692;2022-11-15T08:22:47;100674.97;;;13.30;70.39
9110;BME280;4590;51.462;6.692;2022-11-15T08:25:12;100667.00;;;13.29;70.42
9110;BME280;4590;51.462;6.692;2022-11-15T08:27:38;100667.66;;;13.26;70.93
9110;BME280;4590;51.462;6.692;2022-11-15T08:30:03;100674.81;;;13.27;70.67
9110;BME280;4590;51.462;6.692;2022-11-15T08:32:30;100672.88;;;13.27;70.61
9110;BME280;4590;51.462;6.692;2022-11-15T08:34:56;100673.03;;;13.31;70.44
9110;BME280;4590;51.462;6.692;2022-11-15T08:37:21;100674.16;;;13.30;70.91
9110;BME280;4590;51.462;6.692;2022-11-15T08:39:46;100670.75;;;13.33;70.52
9110;BME280;4590;51.462;6.692;2022-11-15T08:42:12;100661.97;;;13.31;70.98
9110;BME280;4590;51.462;6.692;2022-11-15T08:44:38;100652.72;;;13.36;70.89
9110;BME280;4590;51.462;6.692;2022-11-15T08:47:03;100661.31;;;13.34;70.98
9110;BME280;4590;51.462;6.692;2022-11-15T08:49:28;100650.28;;;13.34;71.57
9110;BME280;4590;51.462;6.692;2022-11-15T08:51:54;100640.81;;;13.44;71.27
9110;BME280;4590;51.462;6.692;2022-11-15T08:54:19;100637.75;;;13.28;72.14
9110;BME280;4590;51.462;6.692;2022-11-15T08:56:44;100644.09;;;13.37;71.97
9110;BME280;4590;51.462;6.692;2022-11-15T08:59:10;100642.13;;;13.46;71.67
9110;BME280;4590;51.462;6.692;2022-11-15T09:01:35;100632.16;;;13.54;71.70
9110;BME280;4590;51.462;6.692;2022-11-15T09:04:00;100629.56;;;13.66;71.78
9110;BME280;4590;51.462;6.692;2022-11-15T09:06:26;100632.44;;;13.78;71.56
9110;BME280;4590;51.462;6.692;2022-11-15T09:08:51;100635.97;;;13.87;71.65
9110;BME280;4590;51.462;6.692;2022-11-15T09:11:16;100636.13;;;13.91;71.52
9110;BME280;4590;51.462;6.692;2022-11-15T09:13:45;100631.09;;;13.93;71.21
9110;BME280;4590;51.462;6.692;2022-11-15T09:16:10;100630.00;;;13.77;71.68
9110;BME280;4590;51.462;6.692;2022-11-15T09:18:37;100628.97;;;13.90;71.04
9110;BME280;4590;51.462;6.692;2022-11-15T09:21:03;100628.16;;;13.89;70.79
9110;BME280;4590;51.462;6.692;2022-11-15T09:23:29;100634.34;;;13.95;70.55
9110;BME280;4590;51.462;6.692;2022-11-15T09:25:59;100623.75;;;13.97;70.34
9110;BME280;4590;51.462;6.692;2022-11-15T09:28:25;100626.31;;;14.02;70.20
9110;BME280;4590;51.462;6.692;2022-11-15T09:30:50;100618.50;;;14.04;70.23
9110;BME280;4590;51.462;6.692;2022-11-15T09:33:15;100621.91;;;14.10;70.36
9110;BME280;4590;51.462;6.692;2022-11-15T09:35:41;100625.31;;;14.15;70.48
9110;BME280;4590;51.462;6.692;2022-11-15T09:38:06;100618.91;;;14.23;70.73
9110;BME280;4590;51.462;6.692;2022-11-15T09:40:32;100616.88;;;14.32;70.62
9110;BME280;4590;51.462;6.692;2022-11-15T09:48:37;100600.56;;;14.69;69.96
9110;BME280;4590;51.462;6.692;2022-11-15T09:51:28;100589.44;;;14.78;69.79
9110;BME280;4590;51.462;6.692;2022-11-15T09:54:10;100579.56;;;14.89;69.13
9110;BME280;4590;51.462;6.692;2022-11-15T09:56:39;100570.63;;;15.04;69.01
9110;BME280;4590;51.462;6.692;2022-11-15T10:02:10;100568.84;;;14.99;66.89
9110;BME280;4590;51.462;6.692;2022-11-15T10:04:39;100568.09;;;15.11;66.68
9110;BME280;4590;51.462;6.692;2022-11-15T10:10:15;100568.69;;;15.17;63.64
9110;BME280;4590;51.462;6.692;2022-11-15T10:12:47;100551.19;;;15.25;63.98
9110;BME280;4590;51.462;6.692;2022-11-15T10:15:16;100552.81;;;15.38;63.99
9110;BME280;4590;51.462;6.692;2022-11-15T10:20:29;100554.03;;;15.61;63.52
9110;BME280;4590;51.462;6.692;2022-11-15T10:22:58;100552.06;;;15.62;62.04
9110;BME280;4590;51.462;6.692;2022-11-15T10:28:16;100540.47;;;15.35;57.89
9110;BME280;4590;51.462;6.692;2022-11-15T10:30:48;100537.75;;;15.60;59.63
9110;BME280;4590;51.462;6.692;2022-11-15T10:41:36;100517.00;;;15.33;56.18
9110;BME280;4590;51.462;6.692;2022-11-15T10:49:29;100512.22;;;15.66;54.98
9110;BME280;4590;51.462;6.692;2022-11-15T10:51:57;100504.25;;;16.01;56.43
9110;BME280;4590;51.462;6.692;2022-11-15T10:57:18;100506.31;;;15.80;53.68
9110;BME280;4590;51.462;6.692;2022-11-15T10:59:49;100497.19;;;15.79;52.45
9110;BME280;4590;51.462;6.692;2022-11-15T11:02:47;100489.78;;;15.96;52.47
9110;BME280;4590;51.462;6.692;2022-11-15T11:05:40;100487.97;;;15.88;51.59
9110;BME280;4590;51.462;6.692;2022-11-15T11:08:23;100487.38;;;15.58;50.93
9110;BME280;4590;51.462;6.692;2022-11-15T11:10:54;100493.34;;;16.21;52.36
9110;BME280;4590;51.462;6.692;2022-11-15T11:13:24;100483.22;;;16.40;52.65
9110;BME280;4590;51.462;6.692;2022-11-15T11:19:14;100479.00;;;16.59;49.62
9110;BME280;4590;51.462;6.692;2022-11-15T11:21:51;100481.06;;;16.62;50.28
9110;BME280;4590;51.462;6.692;2022-11-15T11:24:40;100487.13;;;16.52;49.83
9110;BME280;4590;51.462;6.692;2022-11-15T11:27:25;100474.47;;;16.54;50.29
9110;BME280;4590;51.462;6.692;2022-11-15T11:30:19;100474.22;;;16.31;49.31
9110;BME280;4590;51.462;6.692;2022-11-15T11:32:57;100469.69;;;16.39;50.79
9110;BME280;4590;51.462;6.692;2022-11-15T11:35:59;100461.97;;;16.32;50.30
9110;BME280;4590;51.462;6.692;2022-11-15T11:41:44;100468.75;;;15.95;49.74
9110;BME280;4590;51.462;6.692;2022-11-15T11:44:24;100474.09;;;15.88;49.43
9110;BME280;4590;51.462;6.692;2022-11-15T11:47:04;100474.28;;;15.95;49.81
9110;BME280;4590;51.462;6.692;2022-11-15T11:49:46;100470.16;;;15.89;50.17
9110;BME280;4590;51.462;6.692;2022-11-15T11:52:17;100459.97;;;15.81;50.04
9110;BME280;4590;51.462;6.692;2022-11-15T11:57:46;100452.22;;;15.50;49.85
9110;BME280;4590;51.462;6.692;2022-11-15T12:00:22;100448.22;;;15.71;50.03
9110;BME280;4590;51.462;6.692;2022-11-15T12:05:35;100451.22;;;15.66;50.32
9110;BME280;4590;51.462;6.692;2022-11-15T12:11:14;100444.03;;;15.65;49.90
9110;BME280;4590;51.462;6.692;2022-11-15T12:13:42;100436.66;;;15.57;49.70
9110;BME280;4590;51.462;6.692;2022-11-15T12:16:16;100426.13;;;15.38;47.03
9110;BME280;4590;51.462;6.692;2022-11-15T12:18:51;100427.81;;;15.31;48.01
9110;BME280;4590;51.462;6.692;2022-11-15T12:22:00;100423.16;;;14.98;47.83
9110;BME280;4590;51.462;6.692;2022-11-15T12:24:32;100411.66;;;15.33;49.24
9110;BME280;4590;51.462;6.692;2022-11-15T12:27:15;100405.41;;;15.12;47.76
9110;BME280;4590;51.462;6.692;2022-11-15T12:29:52;100401.09;;;14.78;47.07
9110;BME280;4590;51.462;6.692;2022-11-15T12:32:26;100403.34;;;15.08;48.18
9110;BME280;4590;51.462;6.692;2022-11-15T12:34:54;100399.41;;;15.09;48.01
9110;BME280;4590;51.462;6.692;2022-11-15T12:43:01;100392.59;;;15.19;47.11
9110;BME280;4590;51.462;6.692;2022-11-15T12:53:36;100354.50;;;14.92;45.91
9110;BME280;4590;51.462;6.692;2022-11-15T12:58:41;100346.28;;;14.95;45.99
9110;BME280;4590;51.462;6.692;2022-11-15T13:01:07;100335.09;;;15.16;46.78
9110;BME280;4590;51.462;6.692;2022-11-15T13:03:33;100331.75;;;14.86;47.31
9110;BME280;4590;51.462;6.692;2022-11-15T13:06:02;100333.22;;;14.96;46.41
9110;BME280;4590;51.462;6.692;2022-11-15T13:08:42;100323.44;;;14.98;46.04
9110;BME280;4590;51.462;6.692;2022-11-15T13:11:42;100315.59;;;15.00;45.85
9110;BME280;4590;51.462;6.692;2022-11-15T13:15:08;100315.59;;;14.88;46.71
9110;BME280;4590;51.462;6.692;2022-11-15T13:17:32;100314.91;;;15.03;47.03
9110;BME280;4590;51.462;6.692;2022-11-15T13:28:47;100308.88;;;15.01;47.98
9110;BME280;4590;51.462;6.692;2022-11-15T13:33:31;100301.03;;;15.03;48.06
9110;BME280;4590;51.462;6.692;2022-11-15T13:36:00;100293.84;;;15.27;48.15
9110;BME280;4590;51.462;6.692;2022-11-15T13:38:29;100295.94;;;15.30;48.38
9110;BME280;4590;51.462;6.692;2022-11-15T13:40:55;100281.19;;;15.26;48.63
9110;BME280;4590;51.462;6.692;2022-11-15T13:46:12;100268.22;;;15.18;48.28
9110;BME280;4590;51.462;6.692;2022-11-15T13:48:39;100262.25;;;15.03;48.80
9110;BME280;4590;51.462;6.692;2022-11-15T13:53:51;100252.31;;;15.15;48.89
9110;BME280;4590;51.462;6.692;2022-11-15T13:56:19;100242.56;;;15.33;49.24
9110;BME280;4590;51.462;6.692;2022-11-15T13:58:46;100247.53;;;15.39;49.19
9110;BME280;4590;51.462;6.692;2022-11-15T14:01:19;100243.25;;;15.30;48.87
9110;BME280;4590;51.462;6.692;2022-11-15T14:03:50;100247.66;;;15.31;49.15
9110;BME280;4590;51.462;6.692;2022-11-15T14:06:18;100234.22;;;15.45;48.78
9110;BME280;4590;51.462;6.692;2022-11-15T14:09:34;100234.63;;;15.19;49.19
9110;BME280;4590;51.462;6.692;2022-11-15T14:12:01;100225.28;;;15.24;49.81
9110;BME280;4590;51.462;6.692;2022-11-15T14:14:29;100216.28;;;15.15;49.85
9110;BME280;4590;51.462;6.692;2022-11-15T14:16:56;100208.66;;;15.24;50.11
9110;BME280;4590;51.462;6.692;2022-11-15T14:24:35;100209.56;;;15.16;49.88
9110;BME280;4590;51.462;6.692;2022-11-15T14:27:23;100212.16;;;14.96;50.42
9110;BME280;4590;51.462;6.692;2022-11-15T14:29:50;100209.34;;;15.21;50.26
9110;BME280;4590;51.462;6.692;2022-11-15T14:32:21;100207.16;;;15.14;50.13
9110;BME280;4590;51.462;6.692;2022-11-15T14:34:48;100196.72;;;15.35;50.01
9110;BME280;4590;51.462;6.692;2022-11-15T14:37:25;100194.91;;;15.15;50.15
9110;BME280;4590;51.462;6.692;2022-11-15T14:39:57;100177.81;;;15.25;50.03
9110;BME280;4590;51.462;6.692;2022-11-15T14:42:23;100183.84;;;15.15;49.84
9110;BME280;4590;51.462;6.692;2022-11-15T14:44:49;100184.63;;;15.16;50.72
9110;BME280;4590;51.462;6.692;2022-11-15T14:47:15;100187.22;;;15.08;50.64
9110;BME280;4590;51.462;6.692;2022-11-15T14:49:40;100179.56;;;15.18;50.74
9110;BME280;4590;51.462;6.692;2022-11-15T14:52:23;100185.16;;;14.93;50.60
9110;BME280;4590;51.462;6.692;2022-11-15T14:54:49;100180.22;;;15.27;50.79
9110;BME280;4590;51.462;6.692;2022-11-15T14:57:14;100177.00;;;15.25;51.01
9110;BME280;4590;51.462;6.692;2022-11-15T14:59:39;100171.00;;;15.23;50.98
9110;BME280;4590;51.462;6.692;2022-11-15T15:02:15;100169.78;;;15.08;51.38
9110;BME280;4590;51.462;6.692;2022-11-15T15:04:41;100159.59;;;15.12;51.72
9110;BME280;4590;51.462;6.692;2022-11-15T15:07:06;100154.16;;;15.16;51.85
9110;BME280;4590;51.462;6.692;2022-11-15T15:09:32;100148.88;;;15.11;52.06
9110;BME280;4590;51.462;6.692;2022-11-15T15:11:57;100145.66;;;15.08;52.34